Weather at Aeroservicios ALA Airport

Public forecast

Using degrees Celsius for public forecast. Weather courtesy of forecast.io.

Closest aviation weather report (METAR) to Aeroservicios ALA Airport

Report is more than 6 hours old.

Closest report is Altamira Airport, 12.5 nm (23.1 km) ESE. Retrieved 2013/06/10 13:00 UTC (9 years ago):

MNAM 101300Z 04004KT CAVOK 27/23 FEW250

Closest aviation forecast (TAF) to Aeroservicios ALA Airport

Forecast is more than 12 hours old.

Closest forecast is Augusto C. Sandino (Managua) International Airport, 14.8 nm (27.5 km) WSW. Retrieved 2022/09/17 12:27 UTC (8 days ago):

TAF MNMG 171020Z 1712/1812 VRB04KT 9999 FEW021 TEMPO 1714/1719 VRB10KT FEW022 SCT070 TEMPO 1720/1800 VRB12G22KT 7000 DZ/TSRA FEW020CB SCT022